Overseas Houston — WWAA — position and weather

sailwx.info

Track history (hours):
 
Tides and Currents Weather Stations Pressure Air Temp Water Temp Dewpoint Dewpoint Depression Visibility Wind Speed Wind Dir Waves Ship Positions

Overseas Houston

Owner: ASC Leasing I, Inc., Philadelphia, PA. More information available from US FCC via Universal Licensing System and Coast Guard Vessel Documentation Center.

Last reported at 2015-Apr-22 03:33 UTC. Time now 2015-Apr-22 03:46 UTC.
Position N 26°06' W 080°07'.

Type: Tanker. MMSI: 367109000.

Date/timePositionNaut miles runAvg speedWind from/ knotsBaromVisibWave heightAir tempDewpointWater temp
2015-Apr-22 03:33N 26°06' W 080°07'0 0.0
2015-Apr-22 02:33N 26°06' W 080°07'0 0.0
2015-Apr-22 01:24N 26°06' W 080°07'0 0.0
2015-Apr-22 00:33N 26°06' W 080°07'0 0.0
2015-Apr-21 23:24N 26°06' W 080°07'0 0.0
2015-Apr-21 22:23N 26°06' W 080°07'0 0.0
2015-Apr-21 21:23N 26°06' W 080°07'0 0.0
2015-Apr-21 20:26N 26°06' W 080°07'0 0.0
2015-Apr-21 19:26N 26°06' W 080°07'0 0.0
2015-Apr-21 18:26N 26°06' W 080°07'0 0.0
2015-Apr-21 17:26N 26°06' W 080°07'0 0.0
2015-Apr-21 16:26N 26°06' W 080°07'0 0.0
2015-Apr-21 15:29N 26°06' W 080°07'0 0.0
2015-Apr-21 14:26N 26°06' W 080°07'0 0.0
2015-Apr-21 13:29N 26°06' W 080°07'0 0.0
2015-Apr-21 12:29N 26°06' W 080°07'0 0.0
2015-Apr-21 11:29N 26°06' W 080°07'0 0.0
2015-Apr-21 10:32N 26°06' W 080°07'0 0.0
2015-Apr-21 09:32N 26°06' W 080°07'0 0.0
2015-Apr-21 08:32N 26°06' W 080°07'0 0.0
2015-Apr-21 07:29N 26°06' W 080°07'0 0.0
2015-Apr-21 06:32N 26°06' W 080°07'0 0.0
2015-Apr-21 05:29N 26°06' W 080°07'0 0.0
2015-Apr-21 04:32N 26°06' W 080°07'0 0.0
2015-Apr-21 03:32N 26°06' W 080°07'0 0.0
2015-Apr-21 02:20N 26°06' W 080°07'0 0.0
2015-Apr-21 01:33N 26°06' W 080°07'0 0.0
2015-Apr-21 00:32N 26°06' W 080°07'0 0.0
2015-Apr-20 23:32N 26°06' W 080°07'0 0.1
2015-Apr-20 22:33N 26°06' W 080°07'3 3.3
2015-Apr-20 21:33N 26°07' W 080°04'1 1.0
2015-Apr-20 20:26N 26°08' W 080°04'0 0.0
2015-Apr-20 19:23N 26°08' W 080°04'0 0.0
2015-Apr-20 18:26N 26°08' W 080°04'0 0.0
2015-Apr-20 17:26N 26°08' W 080°04'0 0.0
2015-Apr-20 16:26N 26°08' W 080°04'0 0.0
2015-Apr-20 15:26N 26°08' W 080°04'0 0.0
2015-Apr-20 14:29N 26°08' W 080°04'18410.8
2015-Apr-19 21:33N 24°14' W 082°43'1814.8
2015-Apr-19 20:18N 24°15' W 083°03'11714.9
2015-Apr-19 12:26N 25°27' W 084°46'1315.3
2015-Apr-19 11:34N 25°36' W 084°56'2015.0
2015-Apr-19 10:13N 25°50' W 085°13'9414.0
2015-Apr-19 03:32N 26°55' W 086°29'26312.5
2015-Apr-18 06:33N 29°57' W 090°04'  
2015-Apr-13 14:34N 25°36' W 080°01'1212.3
2015-Apr-13 13:33N 25°48' W 080°00'1212.2
2015-Apr-13 12:33N 26°00' W 080°01'8 7.7
2015-Apr-13 11:33N 26°05' W 080°07'0 0.1
2015-Apr-13 10:33N 26°05' W 080°07'0 0.0
2015-Apr-13 09:33N 26°05' W 080°07'0 0.0
2015-Apr-13 08:33N 26°05' W 080°07'0 0.0
2015-Apr-13 07:33N 26°05' W 080°07'0 0.0
2015-Apr-13 06:33N 26°05' W 080°07'0 0.0
2015-Apr-13 05:24N 26°05' W 080°07'0 0.0
2015-Apr-13 04:24N 26°05' W 080°07'0 0.0
2015-Apr-13 03:24N 26°05' W 080°07'0 0.0
2015-Apr-13 02:27N 26°05' W 080°07'0 0.0
2015-Apr-13 01:27N 26°05' W 080°07'0 0.0
2015-Apr-13 00:27N 26°05' W 080°07'0 0.0
2015-Apr-12 23:27N 26°05' W 080°07'0 0.0
2015-Apr-12 22:27N 26°05' W 080°07'0 0.0
2015-Apr-12 21:30N 26°05' W 080°07'0 0.0
2015-Apr-12 20:30N 26°05' W 080°07'0 0.0
2015-Apr-12 19:30N 26°05' W 080°07'0 0.0
2015-Apr-12 18:30N 26°05' W 080°07'0 0.0
2015-Apr-12 17:30N 26°05' W 080°07'0 0.0
2015-Apr-12 16:33N 26°05' W 080°07'0 0.0
2015-Apr-12 15:33N 26°05' W 080°07'0 0.0
2015-Apr-12 14:33N 26°05' W 080°07'0 0.0
2015-Apr-12 13:32N 26°05' W 080°07'0 0.0
2015-Apr-12 12:29N 26°05' W 080°07'0 0.0
2015-Apr-12 11:29N 26°05' W 080°07'0 0.0
2015-Apr-12 10:32N 26°05' W 080°07'0 0.0
2015-Apr-12 09:32N 26°05' W 080°07'0 0.0
2015-Apr-12 08:32N 26°05' W 080°07'0 0.0
2015-Apr-12 07:32N 26°05' W 080°07'0 0.0
2015-Apr-12 06:32N 26°05' W 080°07'0 0.0
2015-Apr-12 05:32N 26°05' W 080°07'0 0.0
2015-Apr-12 04:23N 26°05' W 080°07'  
Track history (hours):
 
Tides and Currents Weather Stations Pressure Air Temp Water Temp Dewpoint Dewpoint Depression Visibility Wind Speed Wind Dir Waves Ship Positions

Overseas Houston

Owner: ASC Leasing I, Inc., Philadelphia, PA. More information available from US FCC via Universal Licensing System and Coast Guard Vessel Documentation Center.

Last reported at 2015-Apr-22 03:33 UTC. Time now 2015-Apr-22 03:46 UTC.
Position N 26°06' W 080°07'.

Type: Tanker. MMSI: 367109000.

Date/timePositionNaut miles runAvg speedWind from/ knotsBaromVisibWave heightAir tempDewpointWater temp
2015-Apr-22 03:33N 26°06' W 080°07'0 0.0
2015-Apr-22 02:33N 26°06' W 080°07'0 0.0
2015-Apr-22 01:24N 26°06' W 080°07'0 0.0
2015-Apr-22 00:33N 26°06' W 080°07'0 0.0
2015-Apr-21 23:24N 26°06' W 080°07'0 0.0
2015-Apr-21 22:23N 26°06' W 080°07'0 0.0
2015-Apr-21 21:23N 26°06' W 080°07'0 0.0
2015-Apr-21 20:26N 26°06' W 080°07'0 0.0
2015-Apr-21 19:26N 26°06' W 080°07'0 0.0
2015-Apr-21 18:26N 26°06' W 080°07'0 0.0
2015-Apr-21 17:26N 26°06' W 080°07'0 0.0
2015-Apr-21 16:26N 26°06' W 080°07'0 0.0
2015-Apr-21 15:29N 26°06' W 080°07'0 0.0
2015-Apr-21 14:26N 26°06' W 080°07'0 0.0
2015-Apr-21 13:29N 26°06' W 080°07'0 0.0
2015-Apr-21 12:29N 26°06' W 080°07'0 0.0
2015-Apr-21 11:29N 26°06' W 080°07'0 0.0
2015-Apr-21 10:32N 26°06' W 080°07'0 0.0
2015-Apr-21 09:32N 26°06' W 080°07'0 0.0
2015-Apr-21 08:32N 26°06' W 080°07'0 0.0
2015-Apr-21 07:29N 26°06' W 080°07'0 0.0
2015-Apr-21 06:32N 26°06' W 080°07'0 0.0
2015-Apr-21 05:29N 26°06' W 080°07'0 0.0
2015-Apr-21 04:32N 26°06' W 080°07'0 0.0
2015-Apr-21 03:32N 26°06' W 080°07'0 0.0
2015-Apr-21 02:20N 26°06' W 080°07'0 0.0
2015-Apr-21 01:33N 26°06' W 080°07'0 0.0
2015-Apr-21 00:32N 26°06' W 080°07'0 0.0
2015-Apr-20 23:32N 26°06' W 080°07'0 0.1
2015-Apr-20 22:33N 26°06' W 080°07'3 3.3
2015-Apr-20 21:33N 26°07' W 080°04'1 1.0
2015-Apr-20 20:26N 26°08' W 080°04'0 0.0
2015-Apr-20 19:23N 26°08' W 080°04'0 0.0
2015-Apr-20 18:26N 26°08' W 080°04'0 0.0
2015-Apr-20 17:26N 26°08' W 080°04'0 0.0
2015-Apr-20 16:26N 26°08' W 080°04'0 0.0
2015-Apr-20 15:26N 26°08' W 080°04'0 0.0
2015-Apr-20 14:29N 26°08' W 080°04'18410.8
2015-Apr-19 21:33N 24°14' W 082°43'1814.8
2015-Apr-19 20:18N 24°15' W 083°03'11714.9
2015-Apr-19 12:26N 25°27' W 084°46'1315.3
2015-Apr-19 11:34N 25°36' W 084°56'2015.0
2015-Apr-19 10:13N 25°50' W 085°13'9414.0
2015-Apr-19 03:32N 26°55' W 086°29'26312.5
2015-Apr-18 06:33N 29°57' W 090°04'  
2015-Apr-13 14:34N 25°36' W 080°01'1212.3
2015-Apr-13 13:33N 25°48' W 080°00'1212.2
2015-Apr-13 12:33N 26°00' W 080°01'8 7.7
2015-Apr-13 11:33N 26°05' W 080°07'0 0.1
2015-Apr-13 10:33N 26°05' W 080°07'0 0.0
2015-Apr-13 09:33N 26°05' W 080°07'0 0.0
2015-Apr-13 08:33N 26°05' W 080°07'0 0.0
2015-Apr-13 07:33N 26°05' W 080°07'0 0.0
2015-Apr-13 06:33N 26°05' W 080°07'0 0.0
2015-Apr-13 05:24N 26°05' W 080°07'0 0.0
2015-Apr-13 04:24N 26°05' W 080°07'0 0.0
2015-Apr-13 03:24N 26°05' W 080°07'0 0.0
2015-Apr-13 02:27N 26°05' W 080°07'0 0.0
2015-Apr-13 01:27N 26°05' W 080°07'0 0.0
2015-Apr-13 00:27N 26°05' W 080°07'0 0.0
2015-Apr-12 23:27N 26°05' W 080°07'0 0.0
2015-Apr-12 22:27N 26°05' W 080°07'0 0.0
2015-Apr-12 21:30N 26°05' W 080°07'0 0.0
2015-Apr-12 20:30N 26°05' W 080°07'0 0.0
2015-Apr-12 19:30N 26°05' W 080°07'0 0.0
2015-Apr-12 18:30N 26°05' W 080°07'0 0.0
2015-Apr-12 17:30N 26°05' W 080°07'0 0.0
2015-Apr-12 16:33N 26°05' W 080°07'0 0.0
2015-Apr-12 15:33N 26°05' W 080°07'0 0.0
2015-Apr-12 14:33N 26°05' W 080°07'0 0.0
2015-Apr-12 13:32N 26°05' W 080°07'0 0.0
2015-Apr-12 12:29N 26°05' W 080°07'0 0.0
2015-Apr-12 11:29N 26°05' W 080°07'0 0.0
2015-Apr-12 10:32N 26°05' W 080°07'0 0.0
2015-Apr-12 09:32N 26°05' W 080°07'0 0.0
2015-Apr-12 08:32N 26°05' W 080°07'0 0.0
2015-Apr-12 07:32N 26°05' W 080°07'0 0.0
2015-Apr-12 06:32N 26°05' W 080°07'0 0.0
2015-Apr-12 05:32N 26°05' W 080°07'0 0.0
2015-Apr-12 04:23N 26°05' W 080°07'  

Dump ship's entire track history